createdAt,value
2022-12-15T00:01:03.691Z,6.07
2022-12-15T00:03:50.146Z,7.90
2022-12-15T00:06:36.047Z,6.50
2022-12-15T00:09:25.063Z,7.80
2022-12-15T00:12:13.708Z,6.57
2022-12-15T00:14:59.854Z,8.53
2022-12-15T00:17:47.660Z,9.50
2022-12-15T00:20:33.788Z,9.83
2022-12-15T00:23:26.611Z,9.23
2022-12-15T00:26:12.884Z,9.10
2022-12-15T00:29:04.957Z,7.60
2022-12-15T00:31:51.348Z,9.57
2022-12-15T00:34:38.568Z,8.70
2022-12-15T00:37:24.437Z,10.50
2022-12-15T00:40:04.943Z,12.13
2022-12-15T00:42:34.028Z,10.90
2022-12-15T00:45:02.817Z,14.93
2022-12-15T00:47:33.046Z,13.23
2022-12-15T00:50:20.100Z,14.57
2022-12-15T00:53:06.480Z,10.50
2022-12-15T00:55:52.736Z,12.47
2022-12-15T00:58:38.831Z,10.90
2022-12-15T01:01:25.599Z,10.27
2022-12-15T01:04:14.818Z,13.70
2022-12-15T01:07:02.099Z,13.63
2022-12-15T01:09:48.152Z,14.60
2022-12-15T01:12:34.296Z,29.13
2022-12-15T01:15:20.342Z,26.43
2022-12-15T01:18:06.144Z,32.00
2022-12-15T01:20:34.832Z,33.87
2022-12-15T01:23:05.151Z,29.73
2022-12-15T01:25:34.106Z,34.80
2022-12-15T01:28:02.652Z,32.73
2022-12-15T01:30:31.557Z,37.03
2022-12-15T01:33:02.204Z,36.33
2022-12-15T01:35:30.826Z,29.37
2022-12-15T01:37:59.689Z,37.07
2022-12-15T01:40:50.377Z,35.87
2022-12-15T01:43:21.052Z,30.50
2022-12-15T01:45:53.650Z,35.53
2022-12-15T01:48:30.262Z,30.73
2022-12-15T01:51:15.490Z,34.00
2022-12-15T01:53:50.202Z,31.23
2022-12-15T01:56:37.289Z,37.17
2022-12-15T01:59:09.349Z,26.40
2022-12-15T02:01:37.809Z,34.23
2022-12-15T02:04:06.698Z,40.17
2022-12-15T02:06:35.038Z,49.27
2022-12-15T02:09:04.309Z,49.57
2022-12-15T02:11:46.657Z,44.53
2022-12-15T02:14:54.831Z,40.83
2022-12-15T02:17:29.712Z,36.73
2022-12-15T02:20:21.266Z,36.27
2022-12-15T02:23:08.496Z,32.83
2022-12-15T02:25:50.789Z,31.80
2022-12-15T02:28:25.014Z,37.03
2022-12-15T02:31:14.386Z,32.17
2022-12-15T02:33:47.780Z,40.47
2022-12-15T02:36:20.212Z,33.77
2022-12-15T02:38:51.836Z,37.43
2022-12-15T02:41:39.830Z,38.63
2022-12-15T02:44:12.242Z,32.93
2022-12-15T02:46:54.768Z,42.77
2022-12-15T02:49:32.683Z,36.93
2022-12-15T02:52:10.242Z,32.07
2022-12-15T02:54:53.199Z,36.73
2022-12-15T02:57:26.930Z,39.27
2022-12-15T03:00:02.271Z,38.00
2022-12-15T03:02:34.785Z,37.80
2022-12-15T03:05:03.387Z,46.30
2022-12-15T03:07:31.972Z,39.27
2022-12-15T03:10:02.667Z,40.07
2022-12-15T03:12:31.219Z,35.10
2022-12-15T03:14:59.689Z,37.80
2022-12-15T03:17:28.091Z,41.23
2022-12-15T03:19:57.896Z,41.43
2022-12-15T03:22:32.712Z,41.30
2022-12-15T03:25:01.058Z,40.13
2022-12-15T03:27:29.638Z,48.50
2022-12-15T03:29:58.491Z,36.70
2022-12-15T03:32:27.831Z,35.33
2022-12-15T03:34:57.908Z,45.37
2022-12-15T03:37:26.640Z,41.93
2022-12-15T03:39:55.058Z,41.83
2022-12-15T03:42:43.870Z,33.60
2022-12-15T03:45:12.451Z,39.93
2022-12-15T03:47:42.371Z,40.57
2022-12-15T03:50:14.453Z,34.23
2022-12-15T03:52:43.103Z,46.07
2022-12-15T03:55:12.432Z,41.83
2022-12-15T03:57:41.188Z,39.47
2022-12-15T04:00:10.362Z,35.03
2022-12-15T04:02:39.306Z,42.40
2022-12-15T04:05:08.584Z,38.27
2022-12-15T04:07:48.020Z,42.30
2022-12-15T04:10:16.485Z,39.43
2022-12-15T04:12:45.003Z,45.70
2022-12-15T04:15:13.651Z,41.17
2022-12-15T04:17:43.174Z,37.07
2022-12-15T04:20:11.463Z,42.03
2022-12-15T04:22:49.489Z,45.10
2022-12-15T04:25:37.075Z,44.77
2022-12-15T04:28:34.343Z,39.87
2022-12-15T04:31:22.963Z,41.90
2022-12-15T04:34:10.639Z,43.13
2022-12-15T04:36:57.414Z,41.17
2022-12-15T04:39:44.642Z,41.97
2022-12-15T04:42:31.063Z,43.00
2022-12-15T04:45:20.851Z,41.37
2022-12-15T04:48:07.656Z,45.77
2022-12-15T04:50:53.934Z,37.87
2022-12-15T04:53:40.064Z,45.83
2022-12-15T04:56:33.984Z,45.97
2022-12-15T04:59:20.618Z,48.37
2022-12-15T05:02:06.821Z,46.30
2022-12-15T05:04:52.942Z,38.43
2022-12-15T05:07:39.037Z,48.07
2022-12-15T05:10:26.316Z,40.90
2022-12-15T05:13:14.464Z,39.87
2022-12-15T05:16:00.530Z,38.87
2022-12-15T05:18:46.709Z,36.50
2022-12-15T05:21:33.138Z,36.60
2022-12-15T05:24:19.122Z,39.60
2022-12-15T05:27:05.342Z,39.40
2022-12-15T05:29:52.782Z,32.80
2022-12-15T05:32:21.594Z,42.57
2022-12-15T05:34:50.382Z,41.67
2022-12-15T05:37:19.026Z,35.47
2022-12-15T05:39:47.813Z,36.00
2022-12-15T05:42:16.493Z,37.80
2022-12-15T05:44:46.522Z,45.13
2022-12-15T05:47:15.120Z,58.30
2022-12-15T05:49:43.754Z,77.73
2022-12-15T05:52:12.513Z,93.17
2022-12-15T05:54:41.080Z,86.30
2022-12-15T05:57:15.861Z,62.70
2022-12-15T05:59:45.892Z,42.70
2022-12-15T06:02:14.652Z,41.17
2022-12-15T06:04:43.801Z,42.37
2022-12-15T06:07:12.654Z,36.07
2022-12-15T06:09:41.311Z,37.83
2022-12-15T06:12:12.689Z,35.40
2022-12-15T06:14:41.179Z,35.13
2022-12-15T06:17:11.156Z,33.20
2022-12-15T06:19:39.470Z,32.17
2022-12-15T06:22:08.214Z,38.57
2022-12-15T06:24:37.018Z,30.20
2022-12-15T06:27:06.195Z,33.70
2022-12-15T06:29:35.087Z,31.53
2022-12-15T06:32:04.762Z,37.53
2022-12-15T06:34:34.864Z,40.03
2022-12-15T06:37:04.046Z,35.73
2022-12-15T06:39:32.687Z,35.87
2022-12-15T06:42:01.807Z,38.70
2022-12-15T06:44:30.501Z,36.97
2022-12-15T06:46:59.277Z,38.43
2022-12-15T06:49:28.035Z,39.87
2022-12-15T06:51:58.555Z,37.50
2022-12-15T06:54:27.255Z,53.80
2022-12-15T06:56:58.437Z,36.50
2022-12-15T06:59:26.941Z,44.40
2022-12-15T07:01:55.632Z,39.20
2022-12-15T07:04:24.139Z,39.37
2022-12-15T07:06:52.574Z,39.93
2022-12-15T07:09:22.688Z,39.23
2022-12-15T07:11:52.684Z,40.50
2022-12-15T07:14:21.097Z,34.43
2022-12-15T07:17:14.777Z,39.30
2022-12-15T07:19:43.818Z,30.60
2022-12-15T07:22:12.436Z,35.90
2022-12-15T07:24:42.478Z,40.40
2022-12-15T07:27:11.186Z,32.90
2022-12-15T07:29:39.528Z,37.70
2022-12-15T07:32:07.990Z,35.80
2022-12-15T07:34:36.538Z,33.17
2022-12-15T07:37:04.889Z,38.70
2022-12-15T07:39:33.697Z,47.00
2022-12-15T07:42:03.658Z,37.83
2022-12-15T07:44:32.293Z,38.30
2022-12-15T07:47:01.446Z,37.10
2022-12-15T07:49:30.283Z,30.83
2022-12-15T07:52:14.653Z,37.67
2022-12-15T07:54:43.761Z,31.77
2022-12-15T07:57:14.300Z,35.03
2022-12-15T07:59:42.630Z,40.30
2022-12-15T08:02:12.279Z,30.77
2022-12-15T08:04:41.441Z,39.20
2022-12-15T08:07:12.445Z,40.87
2022-12-15T08:09:40.924Z,42.77
2022-12-15T08:12:09.700Z,45.60
2022-12-15T08:14:40.009Z,40.77
2022-12-15T08:17:10.577Z,44.80
2022-12-15T08:19:39.239Z,40.80
2022-12-15T08:22:08.180Z,34.80
2022-12-15T08:24:36.767Z,33.70
2022-12-15T08:27:05.094Z,35.20
2022-12-15T08:29:50.730Z,35.77
2022-12-15T08:32:21.417Z,37.80
2022-12-15T08:34:50.549Z,47.47
2022-12-15T08:38:09.374Z,35.13
2022-12-15T08:40:37.677Z,40.90
2022-12-15T08:43:06.502Z,37.47
2022-12-15T08:45:36.107Z,54.07
2022-12-15T08:48:06.577Z,56.03
2022-12-15T08:50:35.009Z,36.60
2022-12-15T08:53:29.562Z,35.33
2022-12-15T08:55:52.214Z,43.47
2022-12-15T08:58:21.664Z,37.53
2022-12-15T09:00:50.284Z,40.97
2022-12-15T09:03:20.604Z,37.10
2022-12-15T09:05:49.034Z,40.70
2022-12-15T09:08:18.514Z,33.73
2022-12-15T09:10:47.284Z,37.37
2022-12-15T09:13:21.374Z,42.97
2022-12-15T09:16:10.994Z,40.07
2022-12-15T09:18:43.808Z,34.37
2022-12-15T09:21:14.276Z,30.90
2022-12-15T09:23:43.186Z,33.80
2022-12-15T09:26:12.981Z,39.07
2022-12-15T09:28:41.629Z,34.40
2022-12-15T09:31:12.140Z,34.70
2022-12-15T09:33:42.701Z,37.20
2022-12-15T09:36:15.755Z,34.77
2022-12-15T09:38:44.916Z,34.23
2022-12-15T09:41:21.715Z,38.73
2022-12-15T09:43:55.137Z,30.60
2022-12-15T09:46:29.579Z,36.73
2022-12-15T09:49:06.074Z,28.87
2022-12-15T09:51:36.781Z,29.97
2022-12-15T09:54:06.524Z,33.23
2022-12-15T09:56:41.701Z,30.83
2022-12-15T09:59:23.968Z,33.60
2022-12-15T10:01:58.454Z,34.80
2022-12-15T10:04:35.057Z,39.20
2022-12-15T10:07:09.959Z,34.77
2022-12-15T10:09:39.001Z,39.40
2022-12-15T10:12:11.740Z,39.10
2022-12-15T10:14:44.218Z,33.10
2022-12-15T10:17:22.716Z,36.23
2022-12-15T10:19:56.682Z,32.10
2022-12-15T10:22:27.557Z,36.67
2022-12-15T10:25:12.202Z,37.13
2022-12-15T10:27:58.249Z,28.60
2022-12-15T10:30:27.150Z,26.70
2022-12-15T10:33:03.862Z,26.53
2022-12-15T10:35:35.557Z,38.23
2022-12-15T10:38:05.902Z,32.97
2022-12-15T10:40:50.282Z,32.73
2022-12-15T10:43:27.691Z,29.20
2022-12-15T10:46:06.105Z,32.00
2022-12-15T10:48:35.085Z,31.97
2022-12-15T10:51:20.559Z,26.87
2022-12-15T10:53:50.987Z,29.50
2022-12-15T10:56:32.354Z,34.80
2022-12-15T10:59:03.861Z,36.10
2022-12-15T11:01:34.636Z,31.47
2022-12-15T11:04:04.153Z,41.30
2022-12-15T11:06:37.163Z,34.67
2022-12-15T11:09:11.700Z,31.73
2022-12-15T11:12:05.587Z,38.93
2022-12-15T11:14:45.725Z,36.27
2022-12-15T11:17:18.314Z,31.70
2022-12-15T11:19:56.721Z,28.43
2022-12-15T11:22:36.347Z,32.80
2022-12-15T11:25:07.981Z,43.03
2022-12-15T11:27:39.103Z,39.37
2022-12-15T11:30:16.816Z,31.97
2022-12-15T11:32:48.918Z,37.03
2022-12-15T11:35:21.304Z,37.60
2022-12-15T11:37:54.174Z,40.30
2022-12-15T11:40:36.977Z,38.93
2022-12-15T11:43:18.689Z,40.23
2022-12-15T11:45:53.489Z,35.77
2022-12-15T11:48:28.156Z,36.57
2022-12-15T11:51:00.601Z,32.80
2022-12-15T11:53:58.093Z,32.03
2022-12-15T11:56:31.493Z,41.80
2022-12-15T11:59:38.051Z,39.40
2022-12-15T12:02:21.670Z,40.17
2022-12-15T12:05:00.537Z,42.87
2022-12-15T12:07:38.465Z,48.33
2022-12-15T12:10:21.880Z,51.00
2022-12-15T12:12:55.323Z,48.83
2022-12-15T12:15:29.090Z,53.63
2022-12-15T12:18:04.001Z,52.13
2022-12-15T12:20:41.837Z,45.63
2022-12-15T12:23:17.590Z,49.50
2022-12-15T12:26:02.789Z,51.70
2022-12-15T12:28:37.989Z,43.37
2022-12-15T12:31:07.495Z,41.93
2022-12-15T12:33:39.721Z,49.20
2022-12-15T12:36:16.426Z,41.73
2022-12-15T12:38:50.820Z,48.13
2022-12-15T12:41:28.052Z,45.90
2022-12-15T12:44:07.970Z,39.47
2022-12-15T12:46:41.339Z,40.60
2022-12-15T12:49:15.290Z,40.07
2022-12-15T12:51:51.282Z,41.60
2022-12-15T12:54:58.696Z,39.50
2022-12-15T12:57:40.731Z,38.70
2022-12-15T13:00:20.985Z,43.07
2022-12-15T13:03:04.553Z,97.60
2022-12-15T13:05:34.172Z,79.20
2022-12-15T13:08:29.513Z,57.30
2022-12-15T13:10:58.021Z,56.57
2022-12-15T13:13:42.435Z,45.17
2022-12-15T13:16:14.837Z,40.23
2022-12-15T13:19:03.771Z,48.27
2022-12-15T13:21:54.928Z,37.23
2022-12-15T13:24:34.961Z,38.57
2022-12-15T13:27:20.957Z,38.77
2022-12-15T13:29:59.083Z,43.97
2022-12-15T13:32:35.138Z,58.93
2022-12-15T13:35:21.421Z,55.03
2022-12-15T13:37:52.581Z,48.63
2022-12-15T13:40:58.743Z,50.53
2022-12-15T13:43:41.519Z,40.13
2022-12-15T13:46:18.546Z,42.80
2022-12-15T13:48:49.263Z,43.83
2022-12-15T13:51:33.971Z,45.43
2022-12-15T13:54:05.806Z,45.73
2022-12-15T13:56:50.678Z,41.77
2022-12-15T13:59:29.174Z,41.97
2022-12-15T14:01:59.351Z,40.57
2022-12-15T14:04:28.224Z,36.20
2022-12-15T14:06:58.849Z,46.03
2022-12-15T14:09:45.344Z,31.57
2022-12-15T14:12:15.037Z,33.80
2022-12-15T14:14:47.235Z,39.10
2022-12-15T14:17:20.413Z,79.87
2022-12-15T14:19:51.447Z,82.47
2022-12-15T14:22:28.592Z,72.43
2022-12-15T14:25:03.723Z,80.10
2022-12-15T14:27:34.084Z,56.10
2022-12-15T14:30:22.621Z,51.70
2022-12-15T14:32:55.543Z,53.67
2022-12-15T14:35:27.801Z,45.03
2022-12-15T14:37:59.038Z,37.40
2022-12-15T14:40:29.488Z,37.03
2022-12-15T14:42:58.498Z,32.50
2022-12-15T14:45:29.431Z,30.97
2022-12-15T14:50:58.772Z,29.40
2022-12-15T14:53:27.697Z,33.27
2022-12-15T14:55:56.632Z,32.90
2022-12-15T14:58:31.463Z,33.57
2022-12-15T15:01:00.740Z,32.50
2022-12-15T15:03:37.637Z,26.87
2022-12-15T15:06:08.968Z,31.77
2022-12-15T15:08:43.708Z,30.87
2022-12-15T15:11:24.348Z,28.70
2022-12-15T15:13:56.276Z,31.40
2022-12-15T15:16:25.370Z,31.80
2022-12-15T15:18:56.743Z,32.33
2022-12-15T15:21:26.978Z,35.13
2022-12-15T15:24:03.552Z,36.60
2022-12-15T15:26:33.049Z,36.43
2022-12-15T15:29:02.641Z,36.90
2022-12-15T15:31:41.023Z,30.03
2022-12-15T15:34:12.292Z,30.43
2022-12-15T15:36:41.060Z,35.60
2022-12-15T15:39:15.688Z,32.67
2022-12-15T15:41:44.437Z,35.00
2022-12-15T15:44:15.535Z,34.87
2022-12-15T15:46:48.596Z,37.10
2022-12-15T15:49:20.856Z,31.17
2022-12-15T15:51:49.425Z,32.00
2022-12-15T15:54:36.286Z,38.77
2022-12-15T15:57:05.428Z,37.80
2022-12-15T15:59:33.823Z,36.17
2022-12-15T16:02:02.667Z,32.07
2022-12-15T16:04:33.541Z,30.97
2022-12-15T16:07:02.320Z,37.40
2022-12-15T16:09:30.921Z,31.57
2022-12-15T16:12:00.837Z,33.47
2022-12-15T16:14:29.409Z,26.10
2022-12-15T16:17:00.228Z,33.53
2022-12-15T16:19:28.965Z,33.90
2022-12-15T16:21:59.366Z,29.53
2022-12-15T16:24:34.184Z,37.73
2022-12-15T16:27:02.980Z,29.93
2022-12-15T16:29:31.512Z,32.37
2022-12-15T16:32:00.768Z,34.13
2022-12-15T16:34:29.326Z,32.87
2022-12-15T16:36:59.526Z,34.23
2022-12-15T16:39:30.790Z,35.87
2022-12-15T16:41:59.717Z,36.10
2022-12-15T16:44:29.462Z,31.47
2022-12-15T16:47:02.021Z,38.77
2022-12-15T16:49:35.225Z,38.40
2022-12-15T16:52:13.934Z,30.50
2022-12-15T16:54:42.485Z,41.27
2022-12-15T16:57:12.414Z,35.53
2022-12-15T16:59:41.007Z,37.53
2022-12-15T17:02:27.452Z,34.80
2022-12-15T17:04:58.496Z,35.90
2022-12-15T17:07:29.675Z,36.93
2022-12-15T17:09:59.221Z,45.40
2022-12-15T17:12:27.678Z,45.67
2022-12-15T17:14:57.855Z,44.23
2022-12-15T17:17:32.393Z,47.90
2022-12-15T17:20:31.184Z,50.23
2022-12-15T17:23:04.877Z,56.70
2022-12-15T17:26:18.202Z,73.43
2022-12-15T17:28:28.937Z,51.50
2022-12-15T17:30:57.925Z,47.10
2022-12-15T17:33:28.899Z,37.77
2022-12-15T17:36:01.438Z,32.43
2022-12-15T17:38:31.655Z,31.20
2022-12-15T17:41:00.787Z,32.50
2022-12-15T17:43:35.335Z,31.77
2022-12-15T17:46:04.605Z,30.60
2022-12-15T17:48:33.557Z,27.73
2022-12-15T17:51:02.677Z,28.03
2022-12-15T17:53:33.163Z,28.57
2022-12-15T17:56:02.229Z,33.83
2022-12-15T17:58:30.805Z,32.60
2022-12-15T18:00:59.910Z,36.87
2022-12-15T18:03:29.189Z,30.67
2022-12-15T18:05:58.268Z,36.00
2022-12-15T18:08:30.147Z,31.97
2022-12-15T18:11:00.191Z,42.57
2022-12-15T18:13:35.038Z,42.60
2022-12-15T18:16:04.545Z,45.13
2022-12-15T18:18:35.165Z,38.53
2022-12-15T18:21:15.533Z,39.53
2022-12-15T18:23:45.740Z,38.27
2022-12-15T18:26:16.601Z,34.50
2022-12-15T18:28:49.836Z,33.33
2022-12-15T18:31:22.825Z,33.37
2022-12-15T18:33:51.339Z,33.27
2022-12-15T18:36:20.796Z,34.97
2022-12-15T18:38:49.965Z,31.80
2022-12-15T18:41:21.479Z,29.93
2022-12-15T18:43:50.102Z,34.90
2022-12-15T18:46:22.192Z,27.43
2022-12-15T18:48:50.797Z,39.80
2022-12-15T18:51:21.701Z,33.37
2022-12-15T18:53:50.982Z,42.80
2022-12-15T18:56:21.929Z,30.47
2022-12-15T18:58:50.745Z,35.20
2022-12-15T19:01:19.378Z,28.83
2022-12-15T19:03:48.591Z,32.93
2022-12-15T19:06:25.760Z,31.30
2022-12-15T19:08:54.964Z,31.30
2022-12-15T19:11:31.139Z,38.30
2022-12-15T19:14:00.605Z,26.30
2022-12-15T19:16:50.973Z,27.70
2022-12-15T19:19:37.129Z,30.70
2022-12-15T19:22:30.180Z,33.63
2022-12-15T19:24:59.416Z,29.13
2022-12-15T19:27:29.991Z,34.10
2022-12-15T19:29:58.397Z,29.07
2022-12-15T19:32:27.581Z,32.07
2022-12-15T19:34:56.260Z,29.83
2022-12-15T19:37:26.755Z,31.97
2022-12-15T19:39:56.723Z,36.97
2022-12-15T19:42:32.172Z,34.07
2022-12-15T19:45:01.717Z,31.97
2022-12-15T19:47:30.701Z,26.47
2022-12-15T19:50:00.391Z,33.27
2022-12-15T19:52:28.876Z,34.80
2022-12-15T19:54:58.107Z,33.90
2022-12-15T19:57:28.800Z,34.07
2022-12-15T19:59:58.714Z,26.30
2022-12-15T20:02:28.020Z,27.20
2022-12-15T20:05:22.435Z,30.90
2022-12-15T20:07:51.221Z,31.03
2022-12-15T20:10:26.163Z,24.53
2022-12-15T20:12:58.941Z,28.20
2022-12-15T20:15:29.428Z,28.70
2022-12-15T20:17:58.272Z,30.00
2022-12-15T20:20:31.254Z,30.17
2022-12-15T20:23:03.305Z,29.80
2022-12-15T20:25:34.964Z,28.97
2022-12-15T20:28:04.546Z,36.27
2022-12-15T20:30:38.392Z,28.40
2022-12-15T20:33:07.252Z,37.63
2022-12-15T20:35:37.568Z,29.63
2022-12-15T20:38:19.353Z,33.37
2022-12-15T20:40:48.672Z,32.97
2022-12-15T20:43:19.092Z,31.13
2022-12-15T20:45:57.762Z,35.93
2022-12-15T20:48:27.377Z,30.37
2022-12-15T20:50:56.478Z,32.47
2022-12-15T20:53:26.886Z,31.33
2022-12-15T20:55:58.031Z,29.97
2022-12-15T20:58:32.881Z,37.23
2022-12-15T21:01:03.491Z,35.87
2022-12-15T21:03:35.556Z,32.47
2022-12-15T21:06:10.152Z,32.00
2022-12-15T21:08:39.138Z,27.57
2022-12-15T21:11:15.006Z,29.13
2022-12-15T21:13:44.174Z,28.30
2022-12-15T21:16:19.802Z,32.27
2022-12-15T21:19:19.701Z,32.43
2022-12-15T21:21:39.368Z,32.97
2022-12-15T21:24:15.394Z,37.63
2022-12-15T21:26:44.279Z,27.03
2022-12-15T21:29:14.718Z,32.30
2022-12-15T21:31:45.377Z,33.67
2022-12-15T21:34:14.342Z,27.73
2022-12-15T21:36:44.473Z,28.03
2022-12-15T21:39:15.832Z,33.73
2022-12-15T21:41:45.986Z,38.53
2022-12-15T21:44:15.025Z,28.77
2022-12-15T21:46:45.052Z,30.87
2022-12-15T21:49:18.640Z,32.57
2022-12-15T21:51:49.818Z,30.07
2022-12-15T21:54:25.997Z,33.00
2022-12-15T21:56:56.674Z,39.77
2022-12-15T21:59:26.552Z,35.17
2022-12-15T22:02:27.038Z,41.53
2022-12-15T22:04:55.858Z,32.10
2022-12-15T22:07:24.409Z,36.80
2022-12-15T22:09:53.157Z,33.13
2022-12-15T22:12:23.443Z,35.97
2022-12-15T22:14:52.506Z,31.00
2022-12-15T22:17:22.856Z,35.37
2022-12-15T22:19:53.288Z,40.00
2022-12-15T22:22:21.678Z,35.60
2022-12-15T22:24:50.549Z,35.20
2022-12-15T22:27:21.208Z,30.77
2022-12-15T22:32:43.439Z,28.13
2022-12-15T22:35:19.044Z,24.33
2022-12-15T22:37:49.904Z,30.80
2022-12-15T22:40:18.550Z,22.47
2022-12-15T22:42:51.890Z,21.33
2022-12-15T22:45:22.214Z,23.87
2022-12-15T22:47:51.178Z,30.03
2022-12-15T22:50:24.081Z,19.27
2022-12-15T22:52:52.772Z,25.13
2022-12-15T22:55:24.632Z,24.60
2022-12-15T22:57:58.695Z,25.30
2022-12-15T23:00:27.557Z,25.83
2022-12-15T23:05:34.528Z,33.20
2022-12-15T23:08:03.175Z,31.33
2022-12-15T23:10:48.744Z,34.10
2022-12-15T23:13:17.501Z,28.77
2022-12-15T23:16:04.142Z,21.43
2022-12-15T23:18:32.697Z,28.87
2022-12-15T23:21:02.885Z,24.67
2022-12-15T23:23:32.645Z,27.87
2022-12-15T23:26:02.222Z,30.03
2022-12-15T23:28:30.764Z,28.47
2022-12-15T23:30:59.690Z,30.80
2022-12-15T23:33:31.423Z,28.10
2022-12-15T23:36:02.819Z,24.53
2022-12-15T23:38:31.530Z,22.70
2022-12-15T23:43:42.484Z,30.63
2022-12-15T23:46:11.497Z,32.90
2022-12-15T23:48:42.085Z,25.70
2022-12-15T23:51:13.938Z,27.17
2022-12-15T23:53:49.307Z,24.40
2022-12-15T23:56:19.378Z,28.77
2022-12-15T23:58:49.375Z,23.13
